Boyce, LA (71409)

4:06 AM CST on February 12, 2016 (GMT -0600)
Downs Lane | | Change Station
CLOSE
Current Station
Personal Weather Station
Location: Alexandria, LA
Elevation: 69 ft
Nearby Weather Stations

Elev 69 ft 31.28 °N, 92.57 °W | Updated 2 minutes ago

Mostly Cloudy
Mostly Cloudy
58.1 °F
Feels Like 58.1 °F
N
3.2
Wind Variable Wind from West

Today
High -- | Low -- °F
--% Chance of Precip.
Yesterday
High -- | Low -- °F
Precip. -- in
Pressure 30.17 in
Visibility 9.0 miles
Clouds Overcast 800 ft
Dew Point 56 °F
Humidity 93%
Rainfall 0.00 in
Snow Depth Not available.
6:55 AM 5:55 PM
Waxing Crescent, 19% visible
METAR KAEX 120953Z AUTO 29005KT 9SM OVC008 14/14 A3016 RMK AO2 SLP215 T01440139 TSNO
Pressure 30.17 in
Visibility 9.0 miles
Clouds Overcast 800 ft
Dew Point 56 °F
Humidity 93%
Rainfall 0.00 in
Snow Depth Not available.
6:55 AM 5:55 PM
Waxing Crescent, 19% visible
METAR KAEX 120953Z AUTO 29005KT 9SM OVC008 14/14 A3016 RMK AO2 SLP215 T01440139 TSNO

10-Day Weather Forecast

Almanac

Astronomy

Feb. 12, 2016 Rise Set
Actual Time
Civil Twilight
Nautical Twilight
Astronomical Twilight
Moon
Length of Visible Light
Length of Day
Tomorrow will be .
, % of the Moon is Illuminated

Today's Extremes

State Highs State Lows

Community

WunderPhotos

Upload Photos

1,892,287 photos uploaded!

WunderBlog® & News

Nearby

Air Quality

  Air Quality AQ Index Pollutant
Not available.

Snow Depth

Station Depth Elevation

Earthquake Activity

City Distance Mag. Time & Date
Minimum magnitude displayed is 2.5.

Coastal Water Temperatures

Place Temperature

Stations

Nearby Weather Stations

Station Location Temp. Windchill Dew Point Humidity Wind Precip. Elev Updated Type
                   

Watches & Warnings

There are currently no watches in effect.